Time;durP1;ratioP1;P1;durP2;ratioP2;P2;SDS_P1;SDS_P2;PMS_P1;PMS_P2;Temp;Humidity;BMP_temperature;BMP_pressure;BME280_temperature;BME280_humidity;BME280_pressure;Samples;Min_cycle;Max_cycle;Signal;HPM_P1;HPM_P2
2023/01/30 00:00:31;;;;;;;13.97;8.87;;;;;;;-1.37;69.69;100454.25;4951418;29;20233;-81
2023/01/30 00:02:56;;;;;;;14.13;9.88;;;;;;;-1.41;69.80;100431.91;4956343;28;20328;-80
2023/01/30 00:05:22;;;;;;;11.10;7.60;;;;;;;-1.44;69.79;100422.47;4954219;28;20602;-78
2023/01/30 00:07:47;;;;;;;19.80;9.10;;;;;;;-1.46;70.01;100413.03;4953560;29;20224;-81
2023/01/30 00:10:13;;;;;;;16.63;9.13;;;;;;;-1.45;70.05;100405.31;4954226;28;20225;-78
2023/01/30 00:12:39;;;;;;;13.17;9.00;;;;;;;-1.41;69.67;100406.16;4955143;28;20264;-80
2023/01/30 00:15:05;;;;;;;15.43;9.33;;;;;;;-1.40;69.82;100398.44;4953014;28;20209;-78
2023/01/30 00:17:30;;;;;;;15.32;8.95;;;;;;;-1.39;69.84;100400.13;4954418;29;20437;-79
2023/01/30 00:19:56;;;;;;;18.10;8.10;;;;;;;-1.36;69.89;100407.00;4952075;28;20273;-78
2023/01/30 00:22:21;;;;;;;12.30;9.70;;;;;;;-1.32;69.83;100390.69;4953930;28;20661;-80
2023/01/30 00:24:47;;;;;;;14.67;10.07;;;;;;;-1.27;69.92;100398.38;4955317;28;20193;-81
2023/01/30 00:27:12;;;;;;;14.47;8.80;;;;;;;-1.25;69.59;100392.34;4952501;28;20186;-80
2023/01/30 00:29:38;;;;;;;10.37;7.83;;;;;;;-1.23;69.67;100393.22;4966987;28;20196;-80
2023/01/30 00:32:03;;;;;;;12.53;7.27;;;;;;;-1.24;69.59;100377.75;4957660;28;20212;-80
2023/01/30 00:34:29;;;;;;;15.60;11.10;;;;;;;-1.26;69.55;100370.03;4957883;28;20470;-80
2023/01/30 00:36:54;;;;;;;10.73;9.70;;;;;;;-1.31;69.65;100350.28;4957389;28;20269;-80
2023/01/30 00:39:20;;;;;;;25.07;12.30;;;;;;;-1.38;69.73;100354.59;4961309;28;20218;-78
2023/01/30 00:47:14;;;;;;;11.13;9.30;;;;;;;-1.51;70.11;100347.75;4960240;29;20210;-78
2023/01/30 00:49:41;;;;;;;12.60;9.10;;;;;;;-1.56;70.13;100352.94;4963511;28;20177;-77
2023/01/30 00:52:07;;;;;;;14.25;9.80;;;;;;;-1.57;70.30;100356.34;4958959;29;20272;-78
2023/01/30 00:54:33;;;;;;;10.90;8.20;;;;;;;-1.53;70.33;100360.66;4978977;28;20270;-80
2023/01/30 00:56:58;;;;;;;13.33;8.27;;;;;;;-1.48;70.21;100358.09;4956147;28;20823;-81
2023/01/30 00:59:25;;;;;;;10.80;7.93;;;;;;;-1.47;69.97;100347.75;4953954;28;20448;-80
2023/01/30 01:01:50;;;;;;;18.60;9.30;;;;;;;-1.46;69.73;100348.59;4954538;29;20189;-80
2023/01/30 01:04:16;;;;;;;16.20;9.17;;;;;;;-1.45;70.13;100347.75;4953949;28;20190;-80
2023/01/30 01:06:41;;;;;;;11.63;10.23;;;;;;;-1.42;69.67;100345.19;4954645;29;20189;-80
2023/01/30 01:09:07;;;;;;;15.37;9.13;;;;;;;-1.40;70.03;100343.47;4954128;28;20181;-80
2023/01/30 01:11:33;;;;;;;16.05;10.25;;;;;;;-1.39;69.71;100342.59;4955831;29;20202;-80
2023/01/30 01:14:00;;;;;;;21.13;11.00;;;;;;;-1.37;69.58;100340.88;4954558;28;20220;-81
2023/01/30 01:16:28;;;;;;;16.35;8.70;;;;;;;-1.37;69.94;100341.72;4947797;29;20177;-80
2023/01/30 01:18:57;;;;;;;12.95;7.63;;;;;;;-1.36;69.60;100348.56;4957370;29;20181;-78
2023/01/30 01:21:23;;;;;;;14.10;7.80;;;;;;;-1.33;69.71;100368.31;4955820;28;20201;-80
2023/01/30 01:23:50;;;;;;;11.00;7.37;;;;;;;-1.33;69.62;100381.22;4955668;28;20232;-80
2023/01/30 01:26:17;;;;;;;13.63;8.50;;;;;;;-1.34;69.63;100388.09;4955722;29;21286;-79
2023/01/30 01:28:42;;;;;;;14.03;8.13;;;;;;;-1.34;69.59;100389.81;4969507;28;20185;-79
2023/01/30 01:31:11;;;;;;;11.55;8.23;;;;;;;-1.33;69.58;100414.72;4971584;28;20193;-80
2023/01/30 01:33:37;;;;;;;15.60;9.13;;;;;;;-1.32;69.69;100426.75;4986820;23;21053;-83
2023/01/30 01:36:03;;;;;;;11.90;7.00;;;;;;;-1.34;69.85;100442.22;4930769;28;20473;-83
2023/01/30 01:38:28;;;;;;;10.07;8.40;;;;;;;-1.31;69.94;100441.34;4945751;29;20205;-82
2023/01/30 01:41:06;;;;;;;10.90;6.70;;;;;;;-1.24;70.07;100440.50;4946835;29;20213;-81
2023/01/30 01:43:56;;;;;;;11.80;6.43;;;;;;;-1.07;69.85;100462.78;4951608;28;20205;-81
2023/01/30 01:46:26;;;;;;;11.32;5.93;;;;;;;-0.95;70.03;100483.38;4945043;29;20208;-81
2023/01/30 01:48:56;;;;;;;10.70;6.20;;;;;;;-0.85;69.87;100491.94;4963109;28;20181;-81
2023/01/30 01:51:29;;;;;;;8.73;5.80;;;;;;;-0.82;69.40;100499.69;4947137;28;20200;-81
2023/01/30 01:54:04;;;;;;;11.73;6.97;;;;;;;-0.84;69.57;100512.56;4948112;28;20231;-82
2023/01/30 01:56:33;;;;;;;10.07;7.47;;;;;;;-0.88;69.52;100516.03;4946833;28;20189;-82
2023/01/30 01:59:11;;;;;;;12.50;6.82;;;;;;;-0.94;69.44;100516.06;4962854;28;20200;-82
2023/01/30 02:01:36;;;;;;;13.25;7.45;;;;;;;-1.01;69.40;100504.03;4962566;28;20195;-81
2023/01/30 02:04:04;;;;;;;7.77;4.93;;;;;;;-1.05;69.70;100500.59;4947146;28;20188;-82
2023/01/30 02:06:31;;;;;;;9.30;6.78;;;;;;;-1.07;69.81;100488.56;4958634;28;20413;-82
2023/01/30 02:09:04;;;;;;;15.77;8.50;;;;;;;-1.16;69.65;100482.56;4948696;28;20823;-82
2023/01/30 02:11:54;;;;;;;10.60;6.53;;;;;;;-1.22;70.24;100477.41;4944154;28;20252;-82
2023/01/30 02:14:20;;;;;;;15.13;7.82;;;;;;;-1.33;70.29;100492.03;4944969;29;20580;-82
2023/01/30 02:16:46;;;;;;;8.20;5.60;;;;;;;-1.35;70.10;100494.63;4944846;28;20197;-82
2023/01/30 02:19:30;;;;;;;13.10;7.40;;;;;;;-1.35;70.01;100493.75;4960156;28;20599;-82
2023/01/30 02:22:15;;;;;;;13.20;7.30;;;;;;;-1.38;70.45;100504.06;4945571;29;20712;-82
2023/01/30 02:25:12;;;;;;;11.23;7.43;;;;;;;-1.38;70.18;100504.06;4944375;28;20268;-82
2023/01/30 02:28:03;;;;;;;10.70;6.25;;;;;;;-1.37;70.47;100496.34;4959164;28;20185;-82
2023/01/30 02:30:55;;;;;;;8.73;7.25;;;;;;;-1.36;70.00;100507.50;4946486;29;20209;-82
2023/01/30 02:33:33;;;;;;;8.93;6.20;;;;;;;-1.36;70.06;100489.47;4940572;29;20221;-82
2023/01/30 02:36:16;;;;;;;11.23;6.88;;;;;;;-1.32;70.33;100493.78;4948123;29;20202;-82
2023/01/30 02:39:30;;;;;;;11.02;6.05;;;;;;;-1.29;69.86;100496.34;4946631;28;20184;-82
2023/01/30 02:42:17;;;;;;;8.63;6.80;;;;;;;-1.33;69.80;100502.34;4943751;28;20197;-82
2023/01/30 02:45:08;;;;;;;14.43;7.75;;;;;;;-1.37;69.75;100483.44;4951591;28;20183;-82
2023/01/30 02:47:56;;;;;;;9.43;6.95;;;;;;;-1.43;69.88;100473.16;4943298;28;20209;-82
2023/01/30 02:50:26;;;;;;;8.85;5.90;;;;;;;-1.49;69.89;100467.13;4943177;29;20207;-82
2023/01/30 02:52:53;;;;;;;8.95;7.03;;;;;;;-1.51;69.90;100469.72;4943998;29;20312;-82
2023/01/30 02:55:21;;;;;;;8.90;5.87;;;;;;;-1.50;70.04;100468.84;4945535;28;20268;-82
2023/01/30 02:57:47;;;;;;;7.72;5.68;;;;;;;-1.48;69.84;100481.75;4946249;28;20464;-82
2023/01/30 03:00:19;;;;;;;10.20;6.57;;;;;;;-1.48;70.02;100486.91;4962881;28;20213;-81
2023/01/30 03:03:08;;;;;;;10.57;6.55;;;;;;;-1.45;69.67;100474.03;4945051;28;20501;-82
2023/01/30 03:06:19;;;;;;;10.85;5.72;;;;;;;-1.49;69.91;100470.56;4960913;28;20185;-82
2023/01/30 03:08:56;;;;;;;12.35;7.40;;;;;;;-1.56;69.78;100451.69;4943609;28;20691;-82
2023/01/30 03:11:28;;;;;;;9.20;6.50;;;;;;;-1.59;70.08;100451.69;4941723;29;20201;-82
2023/01/30 03:14:18;;;;;;;7.75;5.10;;;;;;;-1.62;70.13;100437.94;4942669;28;20209;-82
2023/01/30 03:16:47;;;;;;;8.63;6.00;;;;;;;-1.62;70.33;100461.13;4943398;28;20345;-82
2023/01/30 03:19:12;;;;;;;8.35;6.03;;;;;;;-1.63;70.32;100449.97;4944961;29;20555;-82
2023/01/30 03:21:43;;;;;;;13.93;8.07;;;;;;;-1.61;70.17;100450.84;4945770;29;20178;-83
2023/01/30 03:24:10;;;;;;;13.00;7.60;;;;;;;-1.61;70.18;100447.41;4945147;29;20588;-83
2023/01/30 03:26:41;;;;;;;10.10;6.60;;;;;;;-1.59;70.28;100445.69;4944331;28;20178;-83
2023/01/30 03:29:07;;;;;;;9.60;5.78;;;;;;;-1.58;70.33;100422.50;4960526;28;20185;-83
2023/01/30 03:31:33;;;;;;;7.03;5.30;;;;;;;-1.60;70.19;100424.19;4960535;28;20241;-83
2023/01/30 03:33:58;;;;;;;6.63;5.40;;;;;;;-1.63;70.29;100416.47;4944234;29;20222;-83
2023/01/30 03:36:24;;;;;;;8.53;6.23;;;;;;;-1.68;70.23;100422.50;4942390;29;20182;-83
2023/01/30 03:38:50;;;;;;;14.77;8.13;;;;;;;-1.75;70.45;100423.38;4944095;28;20189;-83
2023/01/30 03:41:16;;;;;;;11.07;6.85;;;;;;;-1.81;70.36;100427.66;4945396;29;20189;-83
2023/01/30 03:43:42;;;;;;;10.25;5.90;;;;;;;-1.83;70.69;100413.06;4961224;28;20228;-83
2023/01/30 03:46:07;;;;;;;8.60;5.57;;;;;;;-1.86;70.84;100408.78;4960587;28;20678;-83
2023/01/30 03:48:33;;;;;;;11.40;6.33;;;;;;;-1.89;70.72;100395.91;4945887;29;20192;-83
2023/01/30 03:50:58;;;;;;;16.83;9.10;;;;;;;-1.91;70.95;100400.19;4946714;28;20197;-83
2023/01/30 03:53:23;;;;;;;19.80;9.33;;;;;;;-1.94;71.08;100396.78;4958761;28;20205;-83
2023/01/30 03:55:49;;;;;;;16.47;7.87;;;;;;;-1.97;70.86;100379.63;4945294;29;20185;-83
2023/01/30 03:58:19;;;;;;;10.23;7.50;;;;;;;-1.97;71.36;100365.84;4961979;28;20193;-82
2023/01/30 04:00:47;;;;;;;12.70;7.57;;;;;;;-1.98;71.01;100343.56;4967722;28;20181;-82
2023/01/30 04:03:14;;;;;;;12.07;7.28;;;;;;;-1.99;71.23;100345.28;4961493;28;20249;-82
2023/01/30 04:05:42;;;;;;;9.48;7.22;;;;;;;-1.97;71.16;100353.88;4974777;28;20185;-82
2023/01/30 04:08:09;;;;;;;12.13;6.78;;;;;;;-1.94;71.37;100347.88;4984271;28;20646;-82
2023/01/30 04:10:35;;;;;;;12.45;7.60;;;;;;;-1.86;71.65;100353.84;4980329;28;20201;-82
2023/01/30 04:13:00;;;;;;;13.70;8.03;;;;;;;-1.73;71.49;100368.41;4980501;28;20256;-82
2023/01/30 04:15:27;;;;;;;13.55;6.95;;;;;;;-1.60;71.67;100375.25;4960659;28;20244;-82
2023/01/30 04:18:05;;;;;;;10.52;6.57;;;;;;;-1.34;71.87;100372.63;4967534;28;20813;-82
2023/01/30 04:20:50;;;;;;;11.20;5.88;;;;;;;-1.05;71.48;100378.53;4967481;29;20216;-82
2023/01/30 04:23:21;;;;;;;10.55;5.55;;;;;;;-0.80;71.26;100371.56;4981869;28;20205;-82
2023/01/30 04:25:47;;;;;;;9.40;6.00;;;;;;;-0.59;70.60;100374.03;4937866;28;20543;-83
2023/01/30 04:28:15;;;;;;;9.23;6.63;;;;;;;-0.39;70.10;100367.88;4961724;28;20208;-82
2023/01/30 04:30:42;;;;;;;11.82;6.57;;;;;;;-0.24;70.08;100376.38;4935365;28;20296;-82
2023/01/30 04:33:34;;;;;;;9.68;7.05;;;;;;;-0.09;69.88;100384.88;4937561;28;20237;-83
2023/01/30 04:36:03;;;;;;;12.05;6.05;;;;;;;0.05;69.49;100402.84;4937482;28;20280;-82
2023/01/30 04:38:30;;;;;;;7.93;5.13;;;;;;;0.17;69.55;100398.44;4944921;29;20260;-82
2023/01/30 04:40:56;;;;;;;7.07;4.90;;;;;;;0.27;69.21;100406.97;4949609;28;20217;-83
2023/01/30 04:43:25;;;;;;;13.80;5.97;;;;;;;0.37;68.85;100412.91;4947625;29;20217;-83
2023/01/30 04:45:53;;;;;;;8.57;5.10;;;;;;;0.45;68.78;100408.53;4948214;29;20212;-83
2023/01/30 04:48:20;;;;;;;9.90;6.87;;;;;;;0.49;68.80;100399.00;4963823;28;20197;-83
2023/01/30 04:50:48;;;;;;;8.45;5.53;;;;;;;0.52;68.71;100396.41;4946567;28;20809;-83
2023/01/30 04:53:15;;;;;;;11.15;5.55;;;;;;;0.52;68.49;100409.34;4962805;28;20213;-83
2023/01/30 04:55:40;;;;;;;9.82;6.38;;;;;;;0.56;68.40;100400.66;4944169;28;20239;-83
2023/01/30 04:58:06;;;;;;;6.70;5.47;;;;;;;0.58;68.46;100389.44;4948997;28;20640;-83
2023/01/30 05:00:31;;;;;;;13.97;7.77;;;;;;;0.61;68.45;100401.47;4948438;29;20189;-83
2023/01/30 05:02:59;;;;;;;12.13;6.90;;;;;;;0.61;68.36;100393.72;4948070;29;20621;-83
2023/01/30 05:05:26;;;;;;;12.70;9.03;;;;;;;0.64;68.00;100386.78;4946168;28;20541;-83
2023/01/30 05:07:52;;;;;;;12.60;7.57;;;;;;;0.70;68.12;100382.41;4949078;28;20556;-83
2023/01/30 05:10:18;;;;;;;12.17;6.73;;;;;;;0.73;68.13;100390.13;4960860;28;20193;-83
2023/01/30 05:12:44;;;;;;;9.90;6.78;;;;;;;0.73;67.94;100403.94;4914207;28;20471;-83
2023/01/30 05:15:10;;;;;;;13.03;6.73;;;;;;;0.74;67.95;100409.97;4909599;29;20473;-83
2023/01/30 05:17:36;;;;;;;12.32;6.78;;;;;;;0.80;67.58;100409.91;4892184;29;20188;-83
2023/01/30 05:20:02;;;;;;;10.77;6.97;;;;;;;0.83;67.58;100407.28;4893255;29;20266;-83
2023/01/30 05:22:27;;;;;;;9.88;6.38;;;;;;;0.82;67.43;100405.56;4892720;29;20234;-81
2023/01/30 05:24:53;;;;;;;14.80;7.43;;;;;;;0.82;67.43;100411.59;4890961;29;20270;-81
2023/01/30 05:27:18;;;;;;;13.67;7.73;;;;;;;0.82;67.29;100418.50;4909340;29;20267;-81
2023/01/30 05:29:43;;;;;;;14.10;5.70;;;;;;;0.83;67.27;100425.38;4910317;29;20203;-81
2023/01/30 05:32:17;;;;;;;13.00;7.97;;;;;;;0.82;67.07;100418.50;4909325;29;20188;-81
2023/01/30 05:34:43;;;;;;;8.68;5.47;;;;;;;0.83;66.92;100417.63;4890333;29;20223;-81
2023/01/30 05:37:09;;;;;;;9.30;6.63;;;;;;;0.83;67.02;100426.22;4892110;29;20214;-82
2023/01/30 05:39:34;;;;;;;10.00;5.65;;;;;;;0.83;66.99;100427.97;4887022;29;21270;-82
2023/01/30 05:42:00;;;;;;;16.17;8.33;;;;;;;0.82;66.86;100416.78;4888559;29;20302;-81
2023/01/30 05:44:25;;;;;;;14.40;7.30;;;;;;;0.81;67.06;100406.41;4889318;29;20218;-82
2023/01/30 05:46:51;;;;;;;8.53;5.63;;;;;;;0.78;67.27;100393.53;4886699;29;20206;-82
2023/01/30 05:49:16;;;;;;;10.27;6.43;;;;;;;0.82;67.03;100395.22;4888385;29;20195;-81
2023/01/30 05:51:41;;;;;;;11.20;6.57;;;;;;;0.85;66.83;100387.44;4887421;29;20184;-81
2023/01/30 05:54:07;;;;;;;9.47;7.60;;;;;;;0.90;66.54;100366.69;4885120;29;20643;-81
2023/01/30 05:56:32;;;;;;;15.23;8.27;;;;;;;0.97;66.67;100369.16;4888854;29;20267;-81
2023/01/30 05:58:59;;;;;;;12.47;7.63;;;;;;;1.04;66.20;100352.69;4890697;29;20188;-81
2023/01/30 06:01:26;;;;;;;12.55;7.70;;;;;;;1.07;66.31;100347.47;4886203;29;20545;-81
2023/01/30 06:03:51;;;;;;;7.45;5.55;;;;;;;1.12;66.14;100356.94;4886352;29;20179;-82
2023/01/30 06:06:17;;;;;;;15.50;6.80;;;;;;;1.16;65.90;100371.53;4887326;29;20397;-81
2023/01/30 06:08:42;;;;;;;6.50;5.90;;;;;;;1.19;65.94;100364.59;4887520;29;20215;-82
2023/01/30 06:11:10;;;;;;;11.67;7.10;;;;;;;1.23;65.82;100370.56;4888811;29;20184;-82
2023/01/30 06:13:37;;;;;;;6.68;5.88;;;;;;;1.25;65.62;100368.84;4877761;29;20203;-83
2023/01/30 06:16:03;;;;;;;12.90;7.03;;;;;;;1.30;65.52;100374.81;4885808;29;20202;-80
2023/01/30 06:18:29;;;;;;;13.20;5.35;;;;;;;1.33;65.30;100374.75;4885034;29;20230;-80
2023/01/30 06:20:54;;;;;;;8.33;6.40;;;;;;;1.36;65.12;100374.72;4887730;29;20202;-80
2023/01/30 06:23:22;;;;;;;11.63;7.07;;;;;;;1.38;65.17;100390.22;4885741;29;20224;-81
2023/01/30 06:25:49;;;;;;;14.35;7.25;;;;;;;1.40;65.02;100384.13;4886816;29;20665;-81
2023/01/30 06:28:15;;;;;;;10.85;5.32;;;;;;;1.41;65.01;100383.28;4885937;29;20195;-81
2023/01/30 06:30:41;;;;;;;11.70;6.65;;;;;;;1.43;64.76;100376.34;4885061;29;20195;-80
2023/01/30 06:33:07;;;;;;;10.63;6.20;;;;;;;1.45;64.58;100386.66;4885846;29;20306;-81
2023/01/30 06:35:33;;;;;;;17.42;8.77;;;;;;;1.50;64.80;100377.09;4887348;29;20456;-80
2023/01/30 06:37:58;;;;;;;10.47;8.43;;;;;;;1.51;64.62;100384.00;4885680;29;20200;-80
2023/01/30 06:40:24;;;;;;;11.97;8.17;;;;;;;1.51;64.45;100379.69;4884613;29;20522;-81
2023/01/30 06:42:49;;;;;;;9.97;5.97;;;;;;;1.47;64.42;100367.66;4887255;29;20211;-81
2023/01/30 06:45:17;;;;;;;11.20;5.93;;;;;;;1.46;64.42;100371.13;4888639;29;20601;-81
2023/01/30 06:47:54;;;;;;;8.48;7.10;;;;;;;1.45;64.33;100371.13;4888215;29;20202;-81
2023/01/30 06:50:23;;;;;;;8.13;6.03;;;;;;;1.41;64.04;100370.34;4887625;29;20876;-81
2023/01/30 06:52:49;;;;;;;14.27;7.65;;;;;;;1.39;64.18;100360.88;4885855;29;20215;-82
2023/01/30 06:55:18;;;;;;;10.15;7.30;;;;;;;1.40;64.09;100365.16;4877311;29;20207;-82
2023/01/30 06:57:44;;;;;;;8.35;5.80;;;;;;;1.35;64.34;100361.78;4887955;29;20278;-82
2023/01/30 07:00:13;;;;;;;9.73;5.38;;;;;;;1.36;64.24;100355.75;4886520;29;20184;-81
2023/01/30 07:02:39;;;;;;;11.13;5.25;;;;;;;1.34;64.00;100348.00;4884056;29;20211;-82
2023/01/30 07:05:06;;;;;;;7.80;5.67;;;;;;;1.32;64.22;100353.22;4888355;29;20770;-81
2023/01/30 07:07:32;;;;;;;7.20;5.45;;;;;;;1.32;64.08;100353.22;4893247;29;20195;-81
2023/01/30 07:09:59;;;;;;;8.15;4.65;;;;;;;1.33;64.21;100346.28;4886956;29;20180;-81
2023/01/30 07:12:25;;;;;;;8.43;6.10;;;;;;;1.33;64.01;100343.69;4886115;29;20206;-81
2023/01/30 07:14:52;;;;;;;13.02;7.20;;;;;;;1.33;63.90;100338.53;4886214;29;20314;-81
2023/01/30 07:17:18;;;;;;;10.70;6.15;;;;;;;1.32;64.06;100334.22;4886913;29;20475;-81
2023/01/30 07:19:43;;;;;;;9.27;6.40;;;;;;;1.35;63.88;100341.97;4889639;29;20281;-81
2023/01/30 07:22:09;;;;;;;9.93;5.67;;;;;;;1.37;63.65;100342.78;4887812;29;20439;-81
2023/01/30 07:24:34;;;;;;;8.13;4.17;;;;;;;1.40;63.80;100337.53;4889924;29;20211;-81
2023/01/30 07:27:00;;;;;;;7.97;5.40;;;;;;;1.38;63.72;100339.31;4889234;29;20766;-82
2023/01/30 07:29:25;;;;;;;11.07;7.30;;;;;;;1.42;63.40;100351.31;4888974;29;20194;-81
2023/01/30 07:31:51;;;;;;;7.43;5.83;;;;;;;1.41;63.45;100357.41;4884173;29;20195;-81
2023/01/30 07:34:16;;;;;;;10.33;5.17;;;;;;;1.46;63.38;100360.78;4936711;23;20233;-82
2023/01/30 07:36:41;;;;;;;13.17;8.50;;;;;;;1.49;63.24;100368.50;4925662;28;20201;-82
2023/01/30 07:39:08;;;;;;;7.57;4.97;;;;;;;1.53;63.23;100382.25;4937467;28;20181;-82
2023/01/30 07:41:34;;;;;;;14.80;7.82;;;;;;;1.58;63.38;100387.38;4935906;28;20202;-82
2023/01/30 07:44:00;;;;;;;10.65;5.82;;;;;;;1.63;63.14;100375.22;4940608;28;20201;-82
2023/01/30 07:46:25;;;;;;;14.60;7.10;;;;;;;1.69;62.85;100381.13;4949039;28;20189;-83
2023/01/30 07:48:51;;;;;;;11.77;7.27;;;;;;;1.75;62.95;100373.28;4961966;28;20455;-82
2023/01/30 07:51:16;;;;;;;9.20;6.30;;;;;;;1.83;62.80;100382.66;4946478;28;20837;-82
2023/01/30 07:53:42;;;;;;;11.50;7.20;;;;;;;1.89;62.82;100388.63;4944207;29;20201;-82
2023/01/30 07:56:09;;;;;;;13.70;6.40;;;;;;;2.04;62.13;100397.03;4942692;28;20229;-82
2023/01/30 07:58:34;;;;;;;9.07;6.30;;;;;;;2.15;61.84;100387.34;4946083;29;20196;-82
2023/01/30 08:00:59;;;;;;;13.23;7.20;;;;;;;2.20;61.47;100390.72;4947839;28;20189;-82
2023/01/30 08:03:25;;;;;;;10.73;6.70;;;;;;;2.21;61.81;100377.72;4945962;28;20341;-82
2023/01/30 08:05:52;;;;;;;12.40;7.80;;;;;;;2.20;61.53;100375.16;4945714;28;20646;-82
2023/01/30 08:08:17;;;;;;;9.80;5.28;;;;;;;2.17;61.94;100376.06;4959992;28;20192;-83
2023/01/30 08:10:43;;;;;;;14.97;6.90;;;;;;;2.15;61.87;100384.75;4946633;28;20185;-82
2023/01/30 08:13:09;;;;;;;11.60;6.97;;;;;;;2.16;62.04;100378.66;4946319;28;21207;-82
2023/01/30 08:15:37;;;;;;;13.57;8.07;;;;;;;2.12;62.21;100374.44;4944146;28;20245;-82
2023/01/30 08:18:02;;;;;;;10.63;7.68;;;;;;;2.11;62.05;100383.94;4945995;29;20197;-82
2023/01/30 08:20:28;;;;;;;13.00;7.23;;;;;;;2.13;61.94;100366.66;4946832;28;20200;-82
2023/01/30 08:22:54;;;;;;;11.13;5.30;;;;;;;2.17;61.90;100386.44;4944908;28;20536;-82
2023/01/30 08:25:20;;;;;;;7.90;4.88;;;;;;;2.24;61.66;100375.94;4942051;28;20268;-83
2023/01/30 08:27:45;;;;;;;9.20;5.30;;;;;;;2.25;61.44;100383.72;4941865;28;20749;-83
2023/01/30 08:30:11;;;;;;;10.00;7.03;;;;;;;2.28;61.61;100375.03;4945680;29;20185;-82
2023/01/30 08:32:36;;;;;;;12.73;6.83;;;;;;;2.27;61.62;100381.97;4945685;29;20205;-82
2023/01/30 08:35:02;;;;;;;11.83;7.13;;;;;;;2.30;61.43;100392.28;4863461;28;20484;-82
2023/01/30 08:37:27;;;;;;;10.10;6.83;;;;;;;2.35;61.52;100389.56;4923592;29;20186;-82
2023/01/30 08:39:52;;;;;;;13.03;6.53;;;;;;;2.37;61.49;100383.47;4924194;28;20892;-82
2023/01/30 08:42:18;;;;;;;11.03;5.60;;;;;;;2.39;61.42;100376.53;4927470;29;20226;-82
2023/01/30 08:44:43;;;;;;;9.43;6.30;;;;;;;2.46;61.29;100379.91;4925591;29;20193;-82
2023/01/30 08:47:09;;;;;;;10.33;6.70;;;;;;;2.49;61.03;100379.84;4925410;29;20261;-82
2023/01/30 08:49:34;;;;;;;15.80;6.73;;;;;;;2.51;61.05;100395.34;4926270;29;20194;-83
2023/01/30 08:51:59;;;;;;;12.77;7.17;;;;;;;2.51;61.01;100396.22;4927303;29;20268;-83
2023/01/30 08:54:25;;;;;;;8.20;5.47;;;;;;;2.50;60.61;100404.88;4927723;29;20210;-83
2023/01/30 08:56:50;;;;;;;13.03;7.90;;;;;;;2.52;60.98;100416.09;4927311;29;20182;-83
2023/01/30 08:59:15;;;;;;;16.63;7.93;;;;;;;2.55;60.72;100417.78;4930818;29;20544;-83
2023/01/30 09:01:41;;;;;;;9.53;5.70;;;;;;;2.56;60.61;100416.88;4930218;29;20217;-83
2023/01/30 09:04:06;;;;;;;12.17;6.60;;;;;;;2.59;60.63;100401.25;4928591;29;20190;-83
2023/01/30 09:06:32;;;;;;;12.03;8.33;;;;;;;2.59;60.52;100393.47;4929364;29;20182;-84
2023/01/30 09:08:59;;;;;;;13.90;6.67;;;;;;;2.60;60.52;100402.97;4928194;29;20194;-84
2023/01/30 09:11:24;;;;;;;12.10;7.43;;;;;;;2.59;60.65;100396.06;4929088;29;20289;-83
2023/01/30 09:13:49;;;;;;;9.37;6.20;;;;;;;2.60;60.77;100400.38;4926107;29;20539;-83
2023/01/30 09:16:15;;;;;;;10.80;7.30;;;;;;;2.63;60.53;100402.91;4921358;29;20194;-82
2023/01/30 09:18:42;;;;;;;12.47;6.47;;;;;;;2.66;60.51;100415.81;4930693;29;20197;-83
2023/01/30 09:21:09;;;;;;;16.35;7.78;;;;;;;2.64;60.05;100402.03;4930329;29;20753;-83
2023/01/30 09:23:36;;;;;;;8.25;7.32;;;;;;;2.62;60.26;100415.03;4930471;29;20700;-83
2023/01/30 09:26:03;;;;;;;12.93;7.40;;;;;;;2.60;60.55;100403.84;4930394;29;20218;-83
2023/01/30 09:28:28;;;;;;;5.65;4.90;;;;;;;2.59;60.25;100407.31;4931976;29;20194;-83
2023/01/30 09:30:57;;;;;;;10.93;7.27;;;;;;;2.59;60.39;100416.81;4929343;29;20248;-83
2023/01/30 09:33:23;;;;;;;10.93;6.63;;;;;;;2.62;60.13;100414.19;4930018;29;20721;-83
2023/01/30 09:35:49;;;;;;;10.23;6.40;;;;;;;2.64;60.33;100412.41;4933114;29;20214;-83
2023/01/30 09:38:15;;;;;;;12.68;7.60;;;;;;;2.69;60.58;100402.81;4931672;29;20636;-83
2023/01/30 09:40:50;;;;;;;11.07;5.93;;;;;;;2.69;60.22;100400.22;4909527;29;20194;-83
2023/01/30 09:43:37;;;;;;;11.32;7.40;;;;;;;2.75;60.07;100394.91;4929584;29;20240;-84
2023/01/30 09:46:40;;;;;;;10.27;6.43;;;;;;;2.75;60.10;100399.22;4929402;29;20249;-83
2023/01/30 09:49:19;;;;;;;10.68;7.10;;;;;;;2.74;60.33;100392.34;4930484;29;20212;-83
2023/01/30 09:52:03;;;;;;;11.70;6.97;;;;;;;2.77;60.27;100387.94;4927745;28;20197;-83
2023/01/30 09:54:30;;;;;;;13.20;7.97;;;;;;;2.80;60.42;100379.25;4928553;29;20222;-83
2023/01/30 09:57:22;;;;;;;11.57;7.03;;;;;;;2.83;60.69;100382.63;4928027;29;20193;-84
2023/01/30 09:59:57;;;;;;;9.45;4.90;;;;;;;2.92;59.98;100388.53;4926519;29;20178;-85
2023/01/30 10:02:38;;;;;;;11.68;5.53;;;;;;;2.97;59.81;100379.78;4929137;29;20180;-83
2023/01/30 10:05:04;;;;;;;9.88;6.32;;;;;;;3.04;59.36;100370.13;4928992;29;20186;-83
2023/01/30 10:07:48;;;;;;;14.30;7.82;;;;;;;3.12;59.43;100393.34;4927389;29;20190;-84
2023/01/30 10:10:47;;;;;;;7.47;5.72;;;;;;;3.19;59.34;100390.59;4930697;28;20212;-84
2023/01/30 10:13:29;;;;;;;10.88;7.15;;;;;;;3.22;59.03;100384.47;4928588;29;20210;-83
2023/01/30 10:16:06;;;;;;;10.77;6.13;;;;;;;3.24;59.16;100398.25;4928890;29;20224;-84
2023/01/30 10:18:31;;;;;;;12.15;7.97;;;;;;;3.22;59.07;100380.13;4927680;29;20190;-84
2023/01/30 10:21:15;;;;;;;13.37;7.30;;;;;;;3.28;59.21;100382.59;4929882;28;20252;-84
2023/01/30 10:24:02;;;;;;;7.63;4.80;;;;;;;3.38;58.38;100366.81;4930509;28;20233;-84
2023/01/30 10:26:30;;;;;;;10.00;5.95;;;;;;;3.48;58.32;100347.53;4929599;29;20925;-84
2023/01/30 10:28:59;;;;;;;12.15;5.65;;;;;;;3.55;58.23;100333.53;4931092;29;20201;-82
2023/01/30 10:31:32;;;;;;;12.63;7.10;;;;;;;3.57;58.27;100357.72;4941213;29;20193;-83
2023/01/30 10:33:57;;;;;;;12.50;8.25;;;;;;;3.62;58.09;100358.47;4929701;29;20746;-83
2023/01/30 10:36:44;;;;;;;9.13;6.70;;;;;;;3.71;58.09;100355.66;4931302;29;20192;-83
2023/01/30 10:39:25;;;;;;;8.60;4.47;;;;;;;3.85;57.72;100336.28;4931660;29;20213;-83
2023/01/30 10:42:01;;;;;;;12.02;9.05;;;;;;;3.97;57.10;100339.44;4931740;29;20390;-83
2023/01/30 10:44:27;;;;;;;12.43;7.38;;;;;;;4.07;56.71;100350.44;4931122;29;20212;-84
2023/01/30 10:47:01;;;;;;;10.03;6.30;;;;;;;4.10;56.38;100349.53;4916466;29;20201;-84
2023/01/30 10:49:39;;;;;;;12.68;7.65;;;;;;;4.09;56.69;100334.81;4912085;29;20181;-82
2023/01/30 10:52:35;;;;;;;21.58;9.48;;;;;;;4.09;56.85;100338.28;4934178;29;20233;-83
2023/01/30 10:55:26;;;;;;;14.80;8.13;;;;;;;4.08;56.79;100326.19;4933222;29;20225;-80
2023/01/30 10:58:05;;;;;;;16.30;7.80;;;;;;;4.12;56.84;100325.19;4934016;29;20245;-82
2023/01/30 11:00:51;;;;;;;14.32;7.55;;;;;;;4.21;56.88;100317.16;4935094;29;20194;-82
2023/01/30 11:03:20;;;;;;;7.45;6.55;;;;;;;4.31;56.53;100306.50;4933476;29;20220;-82
2023/01/30 11:05:49;;;;;;;10.80;7.35;;;;;;;4.38;56.29;100293.31;4936304;29;20199;-82
2023/01/30 11:08:23;;;;;;;13.45;7.85;;;;;;;4.50;56.14;100293.84;4936650;29;20194;-82
2023/01/30 11:10:49;;;;;;;8.40;5.95;;;;;;;4.54;55.54;100292.91;4932701;29;20193;-80
2023/01/30 11:13:31;;;;;;;11.50;7.63;;;;;;;4.53;55.91;100292.00;4935982;29;20274;-82
2023/01/30 11:16:06;;;;;;;9.20;7.90;;;;;;;4.54;55.68;100298.94;4935957;29;20469;-80
2023/01/30 11:18:32;;;;;;;10.25;6.72;;;;;;;4.61;55.89;100274.44;4931561;29;20196;-81
2023/01/30 11:21:03;;;;;;;11.73;7.88;;;;;;;4.64;55.77;100263.97;4931747;29;20200;-81
2023/01/30 11:23:42;;;;;;;6.82;4.97;;;;;;;4.70;55.48;100256.84;4933069;29;20205;-82
2023/01/30 11:26:34;;;;;;;7.40;5.80;;;;;;;4.76;55.44;100256.69;4931915;29;20299;-81
2023/01/30 11:29:33;;;;;;;8.32;4.53;;;;;;;4.76;55.36;100246.28;4928778;29;20194;-80
2023/01/30 11:32:02;;;;;;;13.60;6.68;;;;;;;4.76;55.32;100248.91;4926249;29;20194;-81
2023/01/30 11:34:28;;;;;;;12.27;6.45;;;;;;;4.76;55.48;100256.69;4926933;29;20218;-82
2023/01/30 11:37:12;;;;;;;7.97;7.10;;;;;;;4.74;55.87;100253.28;4931503;29;20229;-79
2023/01/30 11:39:47;;;;;;;12.68;7.22;;;;;;;4.75;55.57;100255.84;4929358;29;20208;-81
2023/01/30 11:42:12;;;;;;;13.77;6.68;;;;;;;4.81;55.60;100241.81;4925768;29;20192;-81